createdAt,value
2024-01-09T00:01:22.012Z,10.02
2024-01-09T00:03:48.890Z,10.00
2024-01-09T00:06:16.435Z,9.05
2024-01-09T00:08:45.251Z,9.63
2024-01-09T00:13:43.035Z,8.38
2024-01-09T00:16:09.802Z,9.38
2024-01-09T00:18:36.667Z,8.70
2024-01-09T00:21:03.778Z,9.18
2024-01-09T00:23:30.645Z,8.80
2024-01-09T00:25:57.515Z,8.77
2024-01-09T00:28:24.298Z,9.20
2024-01-09T00:30:51.500Z,9.50
2024-01-09T00:33:18.463Z,9.48
2024-01-09T00:35:45.523Z,9.77
2024-01-09T00:38:12.419Z,10.00
2024-01-09T00:40:41.228Z,10.10
2024-01-09T00:43:08.259Z,9.88
2024-01-09T00:45:38.125Z,10.00
2024-01-09T00:48:06.834Z,10.00
2024-01-09T00:50:33.830Z,9.98
2024-01-09T00:53:00.718Z,8.95
2024-01-09T00:55:27.439Z,9.25
2024-01-09T00:57:54.214Z,9.93
2024-01-09T01:00:21.008Z,10.07
2024-01-09T01:02:47.931Z,10.55
2024-01-09T01:05:18.455Z,9.75
2024-01-09T01:07:45.754Z,10.68
2024-01-09T01:10:18.786Z,10.70
2024-01-09T01:12:47.748Z,11.23
2024-01-09T01:15:14.552Z,10.43
2024-01-09T01:17:41.487Z,11.55
2024-01-09T01:20:08.918Z,11.95
2024-01-09T01:22:35.864Z,11.68
2024-01-09T01:25:03.198Z,11.43
2024-01-09T01:27:29.965Z,12.57
2024-01-09T01:29:56.596Z,11.68
2024-01-09T01:32:23.300Z,11.75
2024-01-09T01:34:50.141Z,12.75
2024-01-09T01:37:16.929Z,12.60
2024-01-09T01:39:43.697Z,12.80
2024-01-09T01:42:10.431Z,12.65
2024-01-09T01:44:37.196Z,12.55
2024-01-09T01:47:06.344Z,14.05
2024-01-09T01:49:33.354Z,13.32
2024-01-09T01:52:00.763Z,14.35
2024-01-09T01:54:28.633Z,14.27
2024-01-09T01:56:57.755Z,14.27
2024-01-09T01:59:24.972Z,14.98
2024-01-09T02:01:52.644Z,15.15
2024-01-09T02:04:21.703Z,13.98
2024-01-09T02:06:48.749Z,14.88
2024-01-09T02:09:16.680Z,15.70
2024-01-09T02:11:44.130Z,14.48
2024-01-09T02:14:11.062Z,14.77
2024-01-09T02:16:37.788Z,15.80
2024-01-09T02:19:04.525Z,15.77
2024-01-09T02:21:31.346Z,14.23
2024-01-09T02:23:58.104Z,16.08
2024-01-09T02:26:46.580Z,15.82
2024-01-09T02:29:24.453Z,15.02
2024-01-09T02:31:52.667Z,14.68
2024-01-09T02:34:20.672Z,16.52
2024-01-09T02:36:47.418Z,15.93
2024-01-09T02:39:14.141Z,15.57
2024-01-09T02:41:40.840Z,15.25
2024-01-09T02:44:07.590Z,16.00
2024-01-09T02:46:34.287Z,15.27
2024-01-09T02:49:01.281Z,15.75
2024-01-09T02:51:28.010Z,15.35
2024-01-09T02:53:54.783Z,16.00
2024-01-09T02:56:21.648Z,16.38
2024-01-09T02:58:48.364Z,16.15
2024-01-09T03:01:15.169Z,16.17
2024-01-09T03:03:41.968Z,15.77
2024-01-09T03:06:08.834Z,15.80
2024-01-09T03:08:35.562Z,15.65
2024-01-09T03:11:02.201Z,16.30
2024-01-09T03:13:28.858Z,15.55
2024-01-09T03:15:55.546Z,16.38
2024-01-09T03:18:22.450Z,16.25
2024-01-09T03:20:49.389Z,16.00
2024-01-09T03:23:16.243Z,16.52
2024-01-09T03:25:42.922Z,16.45
2024-01-09T03:28:09.660Z,15.77
2024-01-09T03:30:36.397Z,16.63
2024-01-09T03:33:03.265Z,16.17
2024-01-09T03:35:30.052Z,17.33
2024-01-09T03:37:56.813Z,16.48
2024-01-09T03:40:23.469Z,16.83
2024-01-09T03:42:50.252Z,16.73
2024-01-09T03:45:16.919Z,15.05
2024-01-09T03:47:43.818Z,16.95
2024-01-09T03:50:10.640Z,16.45
2024-01-09T03:52:37.341Z,15.55
2024-01-09T03:55:04.210Z,16.02
2024-01-09T03:57:30.910Z,16.10
2024-01-09T03:59:57.667Z,16.30
2024-01-09T04:02:24.517Z,16.05
2024-01-09T04:04:51.375Z,15.65
2024-01-09T04:07:18.099Z,16.48
2024-01-09T04:09:44.841Z,15.95
2024-01-09T04:12:11.559Z,15.57
2024-01-09T04:14:38.929Z,15.82
2024-01-09T04:17:05.632Z,16.17
2024-01-09T04:19:32.597Z,15.45
2024-01-09T04:22:00.096Z,15.65
2024-01-09T04:24:26.818Z,16.55
2024-01-09T04:26:53.643Z,14.90
2024-01-09T04:29:20.401Z,15.38
2024-01-09T04:31:47.322Z,15.25
2024-01-09T04:34:14.220Z,15.85
2024-01-09T04:36:40.989Z,15.10
2024-01-09T04:39:07.769Z,15.55
2024-01-09T04:41:34.505Z,16.20
2024-01-09T04:44:01.309Z,16.50
2024-01-09T04:46:28.944Z,14.93
2024-01-09T04:48:55.845Z,15.68
2024-01-09T04:51:22.629Z,15.68
2024-01-09T04:53:49.417Z,15.68
2024-01-09T04:56:16.199Z,15.80
2024-01-09T04:58:42.914Z,16.02
2024-01-09T05:01:12.741Z,15.18
2024-01-09T05:03:39.668Z,15.88
2024-01-09T05:06:06.541Z,14.65
2024-01-09T05:08:33.303Z,15.68
2024-01-09T05:11:00.021Z,15.07
2024-01-09T05:13:27.440Z,14.80
2024-01-09T05:15:54.113Z,15.15
2024-01-09T05:18:20.947Z,14.95
2024-01-09T05:20:47.753Z,15.98
2024-01-09T05:23:14.468Z,15.07
2024-01-09T05:25:41.269Z,15.98
2024-01-09T05:28:07.989Z,16.13
2024-01-09T05:30:34.721Z,14.27
2024-01-09T05:33:01.595Z,14.63
2024-01-09T05:35:28.666Z,15.13
2024-01-09T05:38:04.765Z,14.52
2024-01-09T05:40:37.525Z,14.27
2024-01-09T05:43:04.370Z,14.60
2024-01-09T05:45:32.295Z,14.57
2024-01-09T05:47:59.111Z,14.90
2024-01-09T05:50:25.945Z,15.13
2024-01-09T05:52:52.598Z,14.60
2024-01-09T05:55:19.282Z,14.95
2024-01-09T05:57:46.336Z,14.70
2024-01-09T06:00:13.674Z,15.32
2024-01-09T06:02:40.535Z,15.25
2024-01-09T06:05:07.814Z,14.32
2024-01-09T06:07:34.529Z,15.40
2024-01-09T06:10:01.247Z,15.05
2024-01-09T06:12:27.951Z,14.23
2024-01-09T06:14:54.629Z,14.23
2024-01-09T06:17:22.575Z,14.00
2024-01-09T06:19:49.276Z,15.20
2024-01-09T06:22:15.915Z,15.27
2024-01-09T06:24:42.535Z,15.45
2024-01-09T06:27:09.205Z,15.02
2024-01-09T06:29:35.908Z,14.52
2024-01-09T06:32:02.652Z,15.30
2024-01-09T06:34:29.356Z,15.75
2024-01-09T06:36:55.981Z,15.55
2024-01-09T06:39:22.882Z,15.52
2024-01-09T06:41:49.535Z,15.35
2024-01-09T06:44:16.369Z,15.95
2024-01-09T06:46:43.139Z,14.70
2024-01-09T06:49:09.868Z,16.02
2024-01-09T06:51:36.654Z,15.13
2024-01-09T06:54:03.719Z,14.88
2024-01-09T06:56:30.436Z,15.48
2024-01-09T06:58:57.178Z,15.20
2024-01-09T07:01:23.963Z,16.05
2024-01-09T07:03:50.736Z,15.27
2024-01-09T07:06:17.673Z,15.15
2024-01-09T07:08:44.526Z,15.55
2024-01-09T07:11:11.283Z,15.82
2024-01-09T07:13:38.016Z,16.33
2024-01-09T07:16:05.091Z,15.77
2024-01-09T07:18:31.956Z,16.38
2024-01-09T07:20:59.420Z,16.70
2024-01-09T07:23:26.381Z,19.75
2024-01-09T07:25:53.112Z,19.63
2024-01-09T07:28:21.075Z,16.00
2024-01-09T07:30:49.267Z,16.50
2024-01-09T07:33:16.748Z,17.58
2024-01-09T07:35:43.653Z,16.45
2024-01-09T07:38:10.372Z,18.13
2024-01-09T07:40:37.090Z,17.00
2024-01-09T07:43:03.853Z,16.70
2024-01-09T07:45:31.201Z,17.77
2024-01-09T07:47:59.318Z,17.15
2024-01-09T07:50:26.561Z,17.85
2024-01-09T07:52:53.261Z,17.10
2024-01-09T07:55:20.144Z,18.10
2024-01-09T07:57:46.799Z,17.30
2024-01-09T08:00:14.401Z,18.05
2024-01-09T08:02:41.095Z,18.42
2024-01-09T08:05:08.181Z,18.20
2024-01-09T08:07:34.884Z,18.52
2024-01-09T08:10:01.541Z,17.75
2024-01-09T08:12:28.140Z,18.70
2024-01-09T08:14:55.712Z,20.10
2024-01-09T08:17:22.606Z,19.40
2024-01-09T08:19:49.636Z,21.10
2024-01-09T08:22:16.376Z,23.15
2024-01-09T08:24:43.086Z,22.17
2024-01-09T08:27:09.929Z,22.85
2024-01-09T08:29:36.649Z,23.13
2024-01-09T08:32:03.616Z,20.90
2024-01-09T08:34:30.460Z,21.48
2024-01-09T08:36:57.268Z,21.85
2024-01-09T08:39:23.886Z,20.48
2024-01-09T08:41:50.677Z,20.65
2024-01-09T08:44:18.977Z,19.20
2024-01-09T08:46:46.251Z,20.90
2024-01-09T08:49:14.422Z,20.27
2024-01-09T08:51:41.389Z,20.73
2024-01-09T08:54:08.794Z,19.52
2024-01-09T08:56:35.520Z,20.85
2024-01-09T08:59:02.481Z,21.45
2024-01-09T09:01:30.336Z,20.50
2024-01-09T09:03:57.637Z,20.90
2024-01-09T09:06:24.457Z,19.63
2024-01-09T09:08:51.191Z,21.27
2024-01-09T09:11:18.308Z,20.75
2024-01-09T09:13:45.608Z,20.95
2024-01-09T09:16:12.377Z,21.08
2024-01-09T09:18:39.618Z,20.63
2024-01-09T09:21:06.685Z,21.35
2024-01-09T09:23:33.622Z,21.63
2024-01-09T09:26:00.431Z,19.67
2024-01-09T09:28:33.849Z,19.20
2024-01-09T09:31:07.801Z,19.92
2024-01-09T09:33:35.230Z,18.70
2024-01-09T09:36:08.520Z,18.05
2024-01-09T09:38:35.678Z,16.88
2024-01-09T09:41:07.329Z,18.08
2024-01-09T09:43:36.367Z,17.98
2024-01-09T09:46:08.151Z,17.45
2024-01-09T09:48:36.908Z,16.88
2024-01-09T09:51:05.473Z,15.52
2024-01-09T09:53:33.327Z,17.15
2024-01-09T09:56:00.173Z,16.70
2024-01-09T09:58:27.133Z,16.40
2024-01-09T10:00:58.165Z,16.77
2024-01-09T10:03:32.312Z,16.20
2024-01-09T10:06:04.251Z,15.25
2024-01-09T10:08:35.211Z,15.32
2024-01-09T10:11:02.661Z,15.60
2024-01-09T10:13:29.660Z,16.50
2024-01-09T10:15:59.381Z,15.50
2024-01-09T10:18:31.572Z,16.52
2024-01-09T10:21:01.046Z,15.10
2024-01-09T10:23:28.543Z,15.43
2024-01-09T10:25:56.449Z,15.95
2024-01-09T10:28:23.962Z,16.00
2024-01-09T10:30:54.460Z,15.15
2024-01-09T10:33:21.491Z,15.25
2024-01-09T10:35:48.415Z,14.65
2024-01-09T10:38:15.217Z,14.95
2024-01-09T10:40:41.987Z,15.35
2024-01-09T10:43:09.040Z,14.18
2024-01-09T10:45:36.730Z,14.77
2024-01-09T10:48:05.972Z,17.02
2024-01-09T10:50:33.708Z,15.15
2024-01-09T10:53:00.665Z,15.35
2024-01-09T10:55:27.364Z,14.95
2024-01-09T10:57:54.115Z,15.50
2024-01-09T11:00:22.497Z,14.70
2024-01-09T11:02:49.779Z,16.00
2024-01-09T11:05:16.908Z,15.00
2024-01-09T11:07:45.516Z,35.17
2024-01-09T11:10:20.855Z,20.52
2024-01-09T11:12:50.492Z,15.15
2024-01-09T11:15:26.219Z,15.15
2024-01-09T11:18:16.045Z,14.40
2024-01-09T11:20:43.103Z,14.13
2024-01-09T11:23:12.798Z,15.05
2024-01-09T11:25:39.607Z,15.43
2024-01-09T11:28:07.937Z,15.18
2024-01-09T11:30:38.432Z,15.10
2024-01-09T11:33:29.024Z,13.98
2024-01-09T11:35:56.525Z,14.60
2024-01-09T11:38:23.367Z,14.48
2024-01-09T11:40:50.220Z,15.25
2024-01-09T11:43:16.974Z,15.38
2024-01-09T11:45:45.999Z,15.27
2024-01-09T11:48:15.190Z,14.70
2024-01-09T11:50:42.601Z,14.40
2024-01-09T11:53:10.303Z,14.32
2024-01-09T11:55:37.671Z,14.60
2024-01-09T11:58:05.836Z,14.85
2024-01-09T12:00:32.673Z,14.82
2024-01-09T12:03:01.682Z,14.23
2024-01-09T12:05:28.857Z,20.25
2024-01-09T12:07:55.574Z,14.10
2024-01-09T12:10:30.597Z,17.63
2024-01-09T12:13:05.244Z,14.32
2024-01-09T12:15:32.087Z,13.88
2024-01-09T12:17:59.729Z,17.23
2024-01-09T12:20:28.310Z,14.90
2024-01-09T12:22:55.933Z,14.07
2024-01-09T12:25:23.396Z,14.43
2024-01-09T12:27:50.630Z,14.80
2024-01-09T12:30:17.720Z,15.38
2024-01-09T12:32:45.340Z,14.23
2024-01-09T12:35:12.739Z,14.43
2024-01-09T12:37:39.446Z,14.13
2024-01-09T12:40:11.157Z,14.90
2024-01-09T12:42:38.376Z,14.82
2024-01-09T12:45:05.683Z,13.55
2024-01-09T12:47:32.739Z,13.32
2024-01-09T12:50:04.256Z,14.65
2024-01-09T12:52:32.945Z,14.73
2024-01-09T12:55:04.745Z,15.02
2024-01-09T12:57:32.505Z,14.55
2024-01-09T12:59:59.285Z,15.07
2024-01-09T13:02:26.967Z,14.45
2024-01-09T13:04:54.901Z,14.40
2024-01-09T13:07:21.911Z,14.80
2024-01-09T13:09:49.582Z,14.85
2024-01-09T13:12:18.003Z,15.18
2024-01-09T13:14:45.313Z,16.00
2024-01-09T13:17:12.437Z,14.27
2024-01-09T13:19:39.738Z,14.10
2024-01-09T13:24:36.286Z,16.17
2024-01-09T13:27:05.464Z,14.07
2024-01-09T13:32:02.581Z,14.32
2024-01-09T13:34:29.619Z,14.63
2024-01-09T13:36:58.598Z,13.95
2024-01-09T13:39:26.132Z,14.98
2024-01-09T13:41:53.098Z,14.75
2024-01-09T13:44:21.180Z,15.18
2024-01-09T13:46:49.181Z,15.38
2024-01-09T13:49:16.226Z,14.70
2024-01-09T13:51:52.030Z,14.38
2024-01-09T13:54:23.246Z,14.75
2024-01-09T13:56:50.125Z,14.23
2024-01-09T13:59:17.002Z,14.15
2024-01-09T14:01:45.614Z,14.73
2024-01-09T14:04:18.271Z,14.75
2024-01-09T14:06:50.536Z,14.60
2024-01-09T14:09:17.325Z,15.07
2024-01-09T14:11:44.184Z,15.57
2024-01-09T14:14:11.209Z,15.27
2024-01-09T14:16:38.141Z,16.23
2024-01-09T14:19:06.845Z,17.05
2024-01-09T14:21:34.033Z,15.35
2024-01-09T14:24:01.231Z,15.38
2024-01-09T14:26:28.081Z,15.52
2024-01-09T14:28:56.300Z,15.73
2024-01-09T14:31:23.813Z,16.45
2024-01-09T14:33:50.705Z,15.70
2024-01-09T14:36:17.442Z,15.60
2024-01-09T14:38:44.139Z,15.55
2024-01-09T14:41:11.838Z,16.17
2024-01-09T14:43:42.497Z,15.15
2024-01-09T14:46:16.337Z,15.52
2024-01-09T14:48:43.140Z,15.30
2024-01-09T14:51:10.144Z,16.23
2024-01-09T14:53:36.917Z,15.27
2024-01-09T14:56:03.925Z,16.73
2024-01-09T14:58:30.748Z,16.60
2024-01-09T15:00:59.883Z,16.42
2024-01-09T15:03:26.890Z,16.45
2024-01-09T15:05:53.709Z,16.02
2024-01-09T15:08:20.475Z,16.13
2024-01-09T15:10:47.178Z,16.33
2024-01-09T15:13:14.630Z,15.98
2024-01-09T15:15:41.413Z,15.43
2024-01-09T15:18:08.238Z,17.25
2024-01-09T15:20:35.060Z,16.45
2024-01-09T15:23:03.007Z,16.60
2024-01-09T15:25:29.823Z,16.65
2024-01-09T15:27:56.544Z,15.60
2024-01-09T15:30:23.209Z,16.05
2024-01-09T15:32:50.553Z,14.20
2024-01-09T15:35:17.415Z,13.82
2024-01-09T15:37:44.203Z,13.00
2024-01-09T15:40:15.040Z,13.75
2024-01-09T15:42:42.497Z,13.80
2024-01-09T15:45:12.633Z,14.30
2024-01-09T15:47:41.750Z,14.40
2024-01-09T15:50:11.093Z,14.18
2024-01-09T15:52:38.234Z,14.00
2024-01-09T15:55:05.381Z,14.02
2024-01-09T15:57:32.155Z,14.75
2024-01-09T15:59:59.432Z,14.80
2024-01-09T16:02:26.307Z,15.70
2024-01-09T16:04:53.961Z,15.45
2024-01-09T16:07:20.756Z,15.15
2024-01-09T16:09:47.401Z,14.93
2024-01-09T16:12:15.904Z,14.88
2024-01-09T16:14:43.726Z,15.10
2024-01-09T16:17:10.618Z,14.23
2024-01-09T16:19:37.455Z,15.45
2024-01-09T16:22:04.970Z,16.02
2024-01-09T16:24:31.586Z,16.90
2024-01-09T16:26:58.230Z,15.60
2024-01-09T16:29:25.650Z,16.45
2024-01-09T16:31:52.403Z,16.85
2024-01-09T16:34:19.197Z,20.95
2024-01-09T16:36:46.097Z,19.48
2024-01-09T16:39:13.448Z,23.60
2024-01-09T16:41:43.276Z,18.23
2024-01-09T16:44:09.969Z,17.23
2024-01-09T16:46:40.813Z,16.83
2024-01-09T16:49:07.720Z,21.25
2024-01-09T16:51:34.469Z,27.80
2024-01-09T16:54:01.193Z,22.08
2024-01-09T16:56:28.147Z,21.85
2024-01-09T16:58:54.933Z,22.83
2024-01-09T17:01:25.854Z,22.42
2024-01-09T17:03:53.123Z,20.35
2024-01-09T17:06:20.799Z,17.67
2024-01-09T17:08:47.825Z,17.65
2024-01-09T17:11:17.744Z,17.67
2024-01-09T17:13:45.607Z,17.20
2024-01-09T17:16:12.367Z,16.70
2024-01-09T17:18:40.215Z,17.05
2024-01-09T17:21:07.045Z,16.45
2024-01-09T17:23:34.037Z,16.23
2024-01-09T17:26:01.169Z,17.83
2024-01-09T17:28:28.063Z,17.02
2024-01-09T17:30:54.743Z,17.52
2024-01-09T17:33:21.443Z,16.85
2024-01-09T17:35:49.810Z,16.83
2024-01-09T17:38:17.501Z,17.20
2024-01-09T17:40:44.271Z,16.58
2024-01-09T17:43:12.005Z,17.92
2024-01-09T17:45:40.392Z,17.85
2024-01-09T17:48:10.532Z,17.92
2024-01-09T17:50:37.336Z,25.02
2024-01-09T17:53:04.474Z,23.73
2024-01-09T17:55:31.565Z,23.17
2024-01-09T17:57:58.287Z,25.90
2024-01-09T18:00:25.003Z,38.70
2024-01-09T18:02:52.066Z,44.75
2024-01-09T18:05:19.068Z,33.47
2024-01-09T18:07:45.852Z,21.55
2024-01-09T18:10:12.640Z,21.65
2024-01-09T18:12:39.477Z,26.58
2024-01-09T18:15:07.769Z,26.00
2024-01-09T18:17:36.358Z,28.08
2024-01-09T18:20:05.883Z,30.13
2024-01-09T18:22:32.645Z,28.17
2024-01-09T18:24:59.362Z,29.50
2024-01-09T18:27:27.121Z,32.97
2024-01-09T18:29:53.938Z,37.95
2024-01-09T18:32:22.771Z,26.13
2024-01-09T18:34:49.800Z,26.05
2024-01-09T18:37:16.478Z,29.77
2024-01-09T18:39:45.678Z,23.33
2024-01-09T18:42:12.401Z,33.15
2024-01-09T18:44:40.893Z,33.25
2024-01-09T18:47:07.713Z,26.05
2024-01-09T18:49:37.089Z,25.85
2024-01-09T18:52:05.605Z,67.30
2024-01-09T18:54:33.211Z,53.42
2024-01-09T18:56:59.977Z,38.15
2024-01-09T18:59:27.329Z,23.95
2024-01-09T19:01:54.214Z,23.65
2024-01-09T19:04:21.105Z,33.63
2024-01-09T19:06:47.961Z,29.27
2024-01-09T19:09:14.574Z,27.30
2024-01-09T19:11:41.657Z,24.90
2024-01-09T19:14:12.008Z,24.95
2024-01-09T19:16:46.296Z,26.60
2024-01-09T19:19:17.921Z,26.42
2024-01-09T19:21:45.952Z,29.80
2024-01-09T19:24:13.234Z,22.92
2024-01-09T19:26:41.087Z,22.02
2024-01-09T19:29:08.011Z,22.53
2024-01-09T19:31:42.255Z,23.10
2024-01-09T19:34:09.533Z,23.85
2024-01-09T19:36:36.215Z,25.40
2024-01-09T19:39:03.055Z,25.60
2024-01-09T19:41:29.737Z,24.20
2024-01-09T19:43:56.484Z,25.23
2024-01-09T19:46:23.231Z,26.77
2024-01-09T19:48:50.911Z,24.00
2024-01-09T19:51:17.685Z,25.15
2024-01-09T19:53:44.451Z,27.73
2024-01-09T19:56:11.532Z,26.25
2024-01-09T19:58:38.348Z,30.92
2024-01-09T20:01:07.881Z,34.40
2024-01-09T20:03:34.607Z,39.13
2024-01-09T20:06:02.256Z,28.27
2024-01-09T20:08:29.076Z,48.13
2024-01-09T20:10:55.786Z,44.67
2024-01-09T20:13:22.485Z,41.10
2024-01-09T20:15:49.436Z,29.20
2024-01-09T20:18:16.187Z,29.55
2024-01-09T20:20:42.889Z,31.70
2024-01-09T20:23:09.562Z,36.97
2024-01-09T20:25:37.369Z,29.75
2024-01-09T20:28:05.670Z,36.20
2024-01-09T20:30:33.463Z,36.35
2024-01-09T20:33:00.363Z,27.70
2024-01-09T20:35:27.208Z,29.92
2024-01-09T20:37:53.982Z,117.13
2024-01-09T20:40:20.685Z,87.70
2024-01-09T20:42:47.313Z,95.50
2024-01-09T20:45:14.547Z,69.70
2024-01-09T20:47:41.392Z,50.00
2024-01-09T20:50:08.514Z,66.82
2024-01-09T20:52:35.406Z,48.70
2024-01-09T20:55:05.384Z,76.53
2024-01-09T20:57:33.178Z,36.92
2024-01-09T20:59:59.942Z,34.47
2024-01-09T21:02:26.862Z,38.20
2024-01-09T21:04:53.749Z,25.83
2024-01-09T21:07:20.544Z,24.98
2024-01-09T21:09:47.398Z,33.47
2024-01-09T21:12:14.249Z,39.40
2024-01-09T21:14:41.166Z,26.73
2024-01-09T21:17:07.987Z,29.40
2024-01-09T21:19:34.802Z,26.77
2024-01-09T21:22:01.583Z,28.13
2024-01-09T21:24:28.264Z,36.83
2024-01-09T21:26:54.892Z,27.42
2024-01-09T21:29:21.654Z,28.23
2024-01-09T21:31:48.601Z,25.77
2024-01-09T21:34:16.141Z,21.23
2024-01-09T21:36:43.102Z,23.63
2024-01-09T21:39:09.886Z,28.58
2024-01-09T21:41:36.685Z,21.50
2024-01-09T21:44:03.574Z,20.08
2024-01-09T21:46:30.356Z,20.35
2024-01-09T21:48:57.229Z,20.58
2024-01-09T21:51:27.164Z,20.27
2024-01-09T21:53:53.939Z,20.35
2024-01-09T21:56:20.761Z,20.23
2024-01-09T21:58:47.684Z,20.35
2024-01-09T22:01:14.666Z,21.98
2024-01-09T22:03:41.577Z,21.10
2024-01-09T22:06:08.875Z,19.85
2024-01-09T22:08:35.762Z,20.67
2024-01-09T22:11:04.486Z,21.95
2024-01-09T22:13:31.678Z,20.73
2024-01-09T22:15:58.473Z,20.27
2024-01-09T22:18:25.281Z,20.85
2024-01-09T22:20:52.060Z,20.98
2024-01-09T22:23:18.823Z,20.77
2024-01-09T22:25:45.791Z,19.80
2024-01-09T22:28:12.747Z,19.65
2024-01-09T22:30:41.771Z,18.95
2024-01-09T22:33:11.154Z,18.52
2024-01-09T22:35:39.796Z,19.23
2024-01-09T22:38:06.615Z,18.08
2024-01-09T22:40:33.450Z,18.73
2024-01-09T22:43:00.198Z,18.25
2024-01-09T22:45:28.796Z,18.30
2024-01-09T22:50:22.971Z,18.63
2024-01-09T22:52:49.822Z,18.02
2024-01-09T22:55:16.602Z,19.30
2024-01-09T22:57:43.318Z,18.20
2024-01-09T23:00:22.705Z,17.83
2024-01-09T23:02:53.513Z,18.10
2024-01-09T23:05:20.642Z,18.23
2024-01-09T23:07:48.408Z,18.42
2024-01-09T23:10:15.796Z,18.05
2024-01-09T23:12:42.439Z,18.58
2024-01-09T23:15:09.921Z,17.85
2024-01-09T23:17:37.410Z,18.33
2024-01-09T23:20:11.923Z,17.13
2024-01-09T23:22:39.813Z,17.70
2024-01-09T23:25:07.522Z,18.30
2024-01-09T23:27:34.205Z,18.35
2024-01-09T23:30:01.031Z,18.10
2024-01-09T23:32:27.973Z,18.55
2024-01-09T23:35:01.464Z,17.13
2024-01-09T23:37:29.214Z,17.83
2024-01-09T23:39:55.998Z,18.40
2024-01-09T23:42:22.687Z,17.77
2024-01-09T23:44:49.451Z,18.52
2024-01-09T23:47:16.334Z,18.48
2024-01-09T23:49:43.144Z,17.15
2024-01-09T23:52:09.881Z,16.85
2024-01-09T23:54:36.533Z,16.67
2024-01-09T23:57:03.174Z,16.48
2024-01-09T23:59:29.851Z,16.80
